sensor_id;sensor_type;location;lat;lon;timestamp;P1;durP1;ratioP1;P2;durP2;ratioP2
18449;SDS011;9354;50.194;7.690;2023-10-09T00:02:45;6.87;;;3.40;;
18449;SDS011;9354;50.194;7.690;2023-10-09T00:05:13;8.50;;;3.47;;
18449;SDS011;9354;50.194;7.690;2023-10-09T00:07:53;8.20;;;3.47;;
18449;SDS011;9354;50.194;7.690;2023-10-09T00:10:21;9.07;;;3.93;;
18449;SDS011;9354;50.194;7.690;2023-10-09T00:12:51;7.93;;;3.10;;
18449;SDS011;9354;50.194;7.690;2023-10-09T00:15:20;6.43;;;3.03;;
18449;SDS011;9354;50.194;7.690;2023-10-09T00:17:47;11.97;;;4.10;;
18449;SDS011;9354;50.194;7.690;2023-10-09T00:20:17;6.37;;;3.40;;
18449;SDS011;9354;50.194;7.690;2023-10-09T00:22:46;8.23;;;3.60;;
18449;SDS011;9354;50.194;7.690;2023-10-09T00:25:13;6.63;;;3.10;;
18449;SDS011;9354;50.194;7.690;2023-10-09T00:27:49;12.70;;;3.30;;
18449;SDS011;9354;50.194;7.690;2023-10-09T00:30:17;7.47;;;3.40;;
18449;SDS011;9354;50.194;7.690;2023-10-09T00:32:48;8.97;;;3.50;;
18449;SDS011;9354;50.194;7.690;2023-10-09T00:35:25;9.63;;;3.47;;
18449;SDS011;9354;50.194;7.690;2023-10-09T00:38:12;12.13;;;3.53;;
18449;SDS011;9354;50.194;7.690;2023-10-09T00:40:49;7.93;;;2.90;;
18449;SDS011;9354;50.194;7.690;2023-10-09T00:43:29;11.43;;;3.40;;
18449;SDS011;9354;50.194;7.690;2023-10-09T00:45:56;8.17;;;3.50;;
18449;SDS011;9354;50.194;7.690;2023-10-09T00:48:35;10.00;;;3.60;;
18449;SDS011;9354;50.194;7.690;2023-10-09T00:51:06;8.17;;;3.70;;
18449;SDS011;9354;50.194;7.690;2023-10-09T00:53:43;7.20;;;3.10;;
18449;SDS011;9354;50.194;7.690;2023-10-09T00:56:14;11.57;;;3.37;;
18449;SDS011;9354;50.194;7.690;2023-10-09T00:58:46;9.63;;;3.90;;
18449;SDS011;9354;50.194;7.690;2023-10-09T01:01:21;10.27;;;3.53;;
18449;SDS011;9354;50.194;7.690;2023-10-09T01:03:55;9.57;;;3.80;;
18449;SDS011;9354;50.194;7.690;2023-10-09T01:06:24;9.87;;;3.37;;
18449;SDS011;9354;50.194;7.690;2023-10-09T01:08:55;9.47;;;3.50;;
18449;SDS011;9354;50.194;7.690;2023-10-09T01:11:34;13.73;;;3.70;;
18449;SDS011;9354;50.194;7.690;2023-10-09T01:14:13;12.40;;;4.10;;
18449;SDS011;9354;50.194;7.690;2023-10-09T01:16:40;7.37;;;3.67;;
18449;SDS011;9354;50.194;7.690;2023-10-09T01:19:10;8.23;;;3.63;;
18449;SDS011;9354;50.194;7.690;2023-10-09T01:21:46;8.03;;;3.67;;
18449;SDS011;9354;50.194;7.690;2023-10-09T01:24:17;9.93;;;3.47;;
18449;SDS011;9354;50.194;7.690;2023-10-09T01:26:46;7.73;;;3.63;;
18449;SDS011;9354;50.194;7.690;2023-10-09T01:29:15;12.40;;;3.50;;
18449;SDS011;9354;50.194;7.690;2023-10-09T01:31:45;10.30;;;3.80;;
18449;SDS011;9354;50.194;7.690;2023-10-09T01:34:20;9.37;;;3.50;;
18449;SDS011;9354;50.194;7.690;2023-10-09T01:36:52;9.20;;;3.10;;
18449;SDS011;9354;50.194;7.690;2023-10-09T01:39:23;10.03;;;3.80;;
18449;SDS011;9354;50.194;7.690;2023-10-09T01:41:53;11.73;;;3.87;;
18449;SDS011;9354;50.194;7.690;2023-10-09T01:44:31;10.20;;;3.93;;
18449;SDS011;9354;50.194;7.690;2023-10-09T01:47:01;8.80;;;3.80;;
18449;SDS011;9354;50.194;7.690;2023-10-09T01:49:33;9.53;;;3.13;;
18449;SDS011;9354;50.194;7.690;2023-10-09T01:52:02;13.03;;;3.87;;
18449;SDS011;9354;50.194;7.690;2023-10-09T01:54:36;6.73;;;3.37;;
18449;SDS011;9354;50.194;7.690;2023-10-09T01:57:04;10.17;;;3.47;;
18449;SDS011;9354;50.194;7.690;2023-10-09T01:59:35;9.73;;;3.70;;
18449;SDS011;9354;50.194;7.690;2023-10-09T02:02:05;9.23;;;3.70;;
18449;SDS011;9354;50.194;7.690;2023-10-09T02:04:40;9.37;;;3.67;;
18449;SDS011;9354;50.194;7.690;2023-10-09T02:07:08;7.93;;;3.30;;
18449;SDS011;9354;50.194;7.690;2023-10-09T02:09:36;8.57;;;3.60;;
18449;SDS011;9354;50.194;7.690;2023-10-09T02:12:11;9.93;;;4.03;;
18449;SDS011;9354;50.194;7.690;2023-10-09T02:14:39;8.70;;;4.07;;
18449;SDS011;9354;50.194;7.690;2023-10-09T02:17:09;12.50;;;3.40;;
18449;SDS011;9354;50.194;7.690;2023-10-09T02:19:44;10.57;;;3.90;;
18449;SDS011;9354;50.194;7.690;2023-10-09T02:22:15;8.23;;;3.03;;
18449;SDS011;9354;50.194;7.690;2023-10-09T02:24:44;7.03;;;3.47;;
18449;SDS011;9354;50.194;7.690;2023-10-09T02:27:39;8.27;;;4.13;;
18449;SDS011;9354;50.194;7.690;2023-10-09T02:30:19;9.60;;;3.77;;
18449;SDS011;9354;50.194;7.690;2023-10-09T02:32:53;10.07;;;3.67;;
18449;SDS011;9354;50.194;7.690;2023-10-09T02:35:29;9.23;;;3.17;;
18449;SDS011;9354;50.194;7.690;2023-10-09T02:38:04;7.97;;;3.47;;
18449;SDS011;9354;50.194;7.690;2023-10-09T02:40:34;12.03;;;3.53;;
18449;SDS011;9354;50.194;7.690;2023-10-09T02:43:27;9.73;;;3.37;;
18449;SDS011;9354;50.194;7.690;2023-10-09T02:45:59;7.77;;;3.47;;
18449;SDS011;9354;50.194;7.690;2023-10-09T02:48:38;8.23;;;3.47;;
18449;SDS011;9354;50.194;7.690;2023-10-09T02:51:10;6.90;;;3.40;;
18449;SDS011;9354;50.194;7.690;2023-10-09T02:53:47;9.20;;;3.60;;
18449;SDS011;9354;50.194;7.690;2023-10-09T02:56:18;6.13;;;3.00;;
18449;SDS011;9354;50.194;7.690;2023-10-09T02:58:50;11.37;;;3.40;;
18449;SDS011;9354;50.194;7.690;2023-10-09T03:01:17;9.70;;;3.90;;
18449;SDS011;9354;50.194;7.690;2023-10-09T03:03:45;12.13;;;3.67;;
18449;SDS011;9354;50.194;7.690;2023-10-09T03:06:12;10.20;;;3.93;;
18449;SDS011;9354;50.194;7.690;2023-10-09T03:08:54;9.97;;;3.73;;
18449;SDS011;9354;50.194;7.690;2023-10-09T03:11:22;6.40;;;3.27;;
18449;SDS011;9354;50.194;7.690;2023-10-09T03:13:52;11.67;;;3.60;;
18449;SDS011;9354;50.194;7.690;2023-10-09T03:16:20;8.57;;;3.80;;
18449;SDS011;9354;50.194;7.690;2023-10-09T03:18:49;10.80;;;3.90;;
18449;SDS011;9354;50.194;7.690;2023-10-09T03:21:18;6.70;;;3.43;;
18449;SDS011;9354;50.194;7.690;2023-10-09T03:23:46;10.03;;;3.87;;
18449;SDS011;9354;50.194;7.690;2023-10-09T03:26:16;8.53;;;3.33;;
18449;SDS011;9354;50.194;7.690;2023-10-09T03:28:46;7.87;;;3.83;;
18449;SDS011;9354;50.194;7.690;2023-10-09T03:31:14;11.67;;;3.50;;
18449;SDS011;9354;50.194;7.690;2023-10-09T03:33:41;8.17;;;3.20;;
18449;SDS011;9354;50.194;7.690;2023-10-09T03:36:09;11.60;;;3.93;;
18449;SDS011;9354;50.194;7.690;2023-10-09T03:38:37;9.73;;;3.37;;
18449;SDS011;9354;50.194;7.690;2023-10-09T03:41:04;8.00;;;3.20;;
18449;SDS011;9354;50.194;7.690;2023-10-09T03:43:33;10.60;;;3.50;;
18449;SDS011;9354;50.194;7.690;2023-10-09T03:46:05;12.90;;;3.40;;
18449;SDS011;9354;50.194;7.690;2023-10-09T03:48:46;12.53;;;3.50;;
18449;SDS011;9354;50.194;7.690;2023-10-09T03:51:14;9.93;;;3.77;;
18449;SDS011;9354;50.194;7.690;2023-10-09T03:53:47;7.67;;;3.40;;
18449;SDS011;9354;50.194;7.690;2023-10-09T03:56:15;11.47;;;3.93;;
18449;SDS011;9354;50.194;7.690;2023-10-09T03:58:43;9.97;;;3.43;;
18449;SDS011;9354;50.194;7.690;2023-10-09T04:01:14;8.47;;;3.77;;
18449;SDS011;9354;50.194;7.690;2023-10-09T04:03:48;13.90;;;3.63;;
18449;SDS011;9354;50.194;7.690;2023-10-09T04:06:16;11.97;;;3.60;;
18449;SDS011;9354;50.194;7.690;2023-10-09T04:08:44;14.27;;;4.03;;
18449;SDS011;9354;50.194;7.690;2023-10-09T04:11:15;11.80;;;3.43;;
18449;SDS011;9354;50.194;7.690;2023-10-09T04:13:48;9.53;;;3.47;;
18449;SDS011;9354;50.194;7.690;2023-10-09T04:16:19;9.13;;;3.13;;
18449;SDS011;9354;50.194;7.690;2023-10-09T04:19:16;10.33;;;3.33;;
18449;SDS011;9354;50.194;7.690;2023-10-09T04:21:47;11.77;;;3.97;;
18449;SDS011;9354;50.194;7.690;2023-10-09T04:24:14;11.53;;;3.50;;
18449;SDS011;9354;50.194;7.690;2023-10-09T04:26:50;10.47;;;3.83;;
18449;SDS011;9354;50.194;7.690;2023-10-09T04:29:22;11.77;;;3.47;;
18449;SDS011;9354;50.194;7.690;2023-10-09T04:31:55;12.70;;;3.43;;
18449;SDS011;9354;50.194;7.690;2023-10-09T04:34:26;11.90;;;4.10;;
18449;SDS011;9354;50.194;7.690;2023-10-09T04:37:00;11.37;;;3.13;;
18449;SDS011;9354;50.194;7.690;2023-10-09T04:39:45;10.30;;;3.80;;
18449;SDS011;9354;50.194;7.690;2023-10-09T04:42:26;12.10;;;4.07;;
18449;SDS011;9354;50.194;7.690;2023-10-09T04:45:03;9.13;;;3.80;;
18449;SDS011;9354;50.194;7.690;2023-10-09T04:48:12;11.13;;;3.60;;
18449;SDS011;9354;50.194;7.690;2023-10-09T04:50:58;13.17;;;3.80;;
18449;SDS011;9354;50.194;7.690;2023-10-09T04:53:46;11.63;;;3.60;;
18449;SDS011;9354;50.194;7.690;2023-10-09T04:56:15;9.50;;;3.40;;
18449;SDS011;9354;50.194;7.690;2023-10-09T04:58:43;9.63;;;3.60;;
18449;SDS011;9354;50.194;7.690;2023-10-09T05:01:11;12.43;;;3.73;;
18449;SDS011;9354;50.194;7.690;2023-10-09T05:03:42;8.60;;;3.33;;
18449;SDS011;9354;50.194;7.690;2023-10-09T05:06:08;8.30;;;3.70;;
18449;SDS011;9354;50.194;7.690;2023-10-09T05:08:47;16.60;;;3.60;;
18449;SDS011;9354;50.194;7.690;2023-10-09T05:11:14;10.43;;;3.23;;
18449;SDS011;9354;50.194;7.690;2023-10-09T05:14:00;7.37;;;3.40;;
18449;SDS011;9354;50.194;7.690;2023-10-09T05:16:38;10.20;;;3.37;;
18449;SDS011;9354;50.194;7.690;2023-10-09T05:19:21;15.07;;;4.20;;
18449;SDS011;9354;50.194;7.690;2023-10-09T05:22:07;18.93;;;3.73;;
18449;SDS011;9354;50.194;7.690;2023-10-09T05:24:55;10.37;;;3.43;;
18449;SDS011;9354;50.194;7.690;2023-10-09T05:27:23;9.57;;;3.23;;
18449;SDS011;9354;50.194;7.690;2023-10-09T05:30:06;8.63;;;3.10;;
18449;SDS011;9354;50.194;7.690;2023-10-09T05:32:51;9.33;;;3.30;;
18449;SDS011;9354;50.194;7.690;2023-10-09T05:35:26;10.67;;;3.93;;
18449;SDS011;9354;50.194;7.690;2023-10-09T05:38:27;10.87;;;3.70;;
18449;SDS011;9354;50.194;7.690;2023-10-09T05:40:56;9.67;;;3.70;;
18449;SDS011;9354;50.194;7.690;2023-10-09T05:43:42;7.20;;;3.37;;
18449;SDS011;9354;50.194;7.690;2023-10-09T05:46:27;6.40;;;3.50;;
18449;SDS011;9354;50.194;7.690;2023-10-09T05:49:01;8.73;;;3.77;;
18449;SDS011;9354;50.194;7.690;2023-10-09T05:51:36;11.97;;;3.83;;
18449;SDS011;9354;50.194;7.690;2023-10-09T05:54:18;10.73;;;3.20;;
18449;SDS011;9354;50.194;7.690;2023-10-09T05:57:04;12.43;;;3.43;;
18449;SDS011;9354;50.194;7.690;2023-10-09T05:59:48;11.43;;;3.63;;
18449;SDS011;9354;50.194;7.690;2023-10-09T06:02:33;8.77;;;3.63;;
18449;SDS011;9354;50.194;7.690;2023-10-09T06:05:18;12.77;;;3.77;;
18449;SDS011;9354;50.194;7.690;2023-10-09T06:08:01;16.83;;;3.90;;
18449;SDS011;9354;50.194;7.690;2023-10-09T06:10:33;12.37;;;3.30;;
18449;SDS011;9354;50.194;7.690;2023-10-09T06:13:07;10.47;;;3.60;;
18449;SDS011;9354;50.194;7.690;2023-10-09T06:16:02;12.37;;;3.50;;
18449;SDS011;9354;50.194;7.690;2023-10-09T06:18:57;8.03;;;3.00;;
18449;SDS011;9354;50.194;7.690;2023-10-09T06:21:37;13.13;;;3.90;;
18449;SDS011;9354;50.194;7.690;2023-10-09T06:24:23;8.27;;;3.30;;
18449;SDS011;9354;50.194;7.690;2023-10-09T06:26:51;9.50;;;3.33;;
18449;SDS011;9354;50.194;7.690;2023-10-09T06:29:32;10.03;;;4.10;;
18449;SDS011;9354;50.194;7.690;2023-10-09T06:32:04;8.00;;;3.67;;
18449;SDS011;9354;50.194;7.690;2023-10-09T06:34:50;9.23;;;3.63;;
18449;SDS011;9354;50.194;7.690;2023-10-09T06:37:18;13.03;;;4.80;;
18449;SDS011;9354;50.194;7.690;2023-10-09T06:40:12;12.90;;;3.60;;
18449;SDS011;9354;50.194;7.690;2023-10-09T06:42:56;9.23;;;3.40;;
18449;SDS011;9354;50.194;7.690;2023-10-09T06:45:24;11.60;;;4.40;;
18449;SDS011;9354;50.194;7.690;2023-10-09T06:48:09;11.43;;;3.57;;
18449;SDS011;9354;50.194;7.690;2023-10-09T06:51:02;8.03;;;3.50;;
18449;SDS011;9354;50.194;7.690;2023-10-09T06:53:33;14.50;;;3.60;;
18449;SDS011;9354;50.194;7.690;2023-10-09T06:56:19;11.07;;;3.30;;
18449;SDS011;9354;50.194;7.690;2023-10-09T06:58:55;10.57;;;3.30;;
18449;SDS011;9354;50.194;7.690;2023-10-09T07:01:23;7.93;;;3.17;;
18449;SDS011;9354;50.194;7.690;2023-10-09T07:04:05;14.63;;;3.43;;
18449;SDS011;9354;50.194;7.690;2023-10-09T07:06:36;11.90;;;3.50;;
18449;SDS011;9354;50.194;7.690;2023-10-09T07:09:16;11.60;;;4.03;;
18449;SDS011;9354;50.194;7.690;2023-10-09T07:11:46;12.13;;;3.47;;
18449;SDS011;9354;50.194;7.690;2023-10-09T07:14:28;8.33;;;3.90;;
18449;SDS011;9354;50.194;7.690;2023-10-09T07:17:18;7.00;;;3.30;;
18449;SDS011;9354;50.194;7.690;2023-10-09T07:19:49;11.23;;;3.67;;
18449;SDS011;9354;50.194;7.690;2023-10-09T07:22:35;8.63;;;3.43;;
18449;SDS011;9354;50.194;7.690;2023-10-09T07:25:28;12.77;;;3.83;;
18449;SDS011;9354;50.194;7.690;2023-10-09T07:28:21;6.83;;;3.40;;
18449;SDS011;9354;50.194;7.690;2023-10-09T07:31:08;8.23;;;3.67;;
18449;SDS011;9354;50.194;7.690;2023-10-09T07:33:52;6.80;;;3.37;;
18449;SDS011;9354;50.194;7.690;2023-10-09T07:36:32;9.43;;;3.93;;
18449;SDS011;9354;50.194;7.690;2023-10-09T07:39:03;9.20;;;3.47;;
18449;SDS011;9354;50.194;7.690;2023-10-09T07:41:39;9.27;;;3.57;;
18449;SDS011;9354;50.194;7.690;2023-10-09T07:44:22;9.17;;;3.63;;
18449;SDS011;9354;50.194;7.690;2023-10-09T07:47:03;9.03;;;3.50;;
18449;SDS011;9354;50.194;7.690;2023-10-09T07:49:43;10.87;;;3.47;;
18449;SDS011;9354;50.194;7.690;2023-10-09T07:52:14;10.93;;;3.30;;
18449;SDS011;9354;50.194;7.690;2023-10-09T07:54:43;18.23;;;3.87;;
18449;SDS011;9354;50.194;7.690;2023-10-09T07:57:19;18.13;;;3.23;;
18449;SDS011;9354;50.194;7.690;2023-10-09T07:59:53;10.07;;;4.10;;
18449;SDS011;9354;50.194;7.690;2023-10-09T08:02:29;8.60;;;3.23;;
18449;SDS011;9354;50.194;7.690;2023-10-09T08:04:59;10.43;;;3.30;;
18449;SDS011;9354;50.194;7.690;2023-10-09T08:07:32;8.93;;;3.57;;
18449;SDS011;9354;50.194;7.690;2023-10-09T08:10:03;9.23;;;3.73;;
18449;SDS011;9354;50.194;7.690;2023-10-09T08:12:48;12.43;;;3.30;;
18449;SDS011;9354;50.194;7.690;2023-10-09T08:15:34;10.53;;;3.33;;
18449;SDS011;9354;50.194;7.690;2023-10-09T08:18:16;9.83;;;3.50;;
18449;SDS011;9354;50.194;7.690;2023-10-09T08:20:53;9.10;;;3.53;;
18449;SDS011;9354;50.194;7.690;2023-10-09T08:23:38;8.80;;;3.43;;
18449;SDS011;9354;50.194;7.690;2023-10-09T08:26:15;9.90;;;3.70;;
18449;SDS011;9354;50.194;7.690;2023-10-09T08:28:54;15.87;;;4.20;;
18449;SDS011;9354;50.194;7.690;2023-10-09T08:31:43;9.53;;;3.10;;
18449;SDS011;9354;50.194;7.690;2023-10-09T08:34:22;8.23;;;3.63;;
18449;SDS011;9354;50.194;7.690;2023-10-09T08:36:52;10.30;;;3.60;;
18449;SDS011;9354;50.194;7.690;2023-10-09T08:39:19;10.07;;;3.50;;
18449;SDS011;9354;50.194;7.690;2023-10-09T08:41:53;14.37;;;3.37;;
18449;SDS011;9354;50.194;7.690;2023-10-09T08:44:23;12.17;;;3.80;;
18449;SDS011;9354;50.194;7.690;2023-10-09T08:46:54;12.70;;;3.57;;
18449;SDS011;9354;50.194;7.690;2023-10-09T08:49:22;9.27;;;3.23;;
18449;SDS011;9354;50.194;7.690;2023-10-09T08:51:50;11.43;;;4.13;;
18449;SDS011;9354;50.194;7.690;2023-10-09T08:54:19;11.73;;;3.87;;
18449;SDS011;9354;50.194;7.690;2023-10-09T08:56:46;14.10;;;3.90;;
18449;SDS011;9354;50.194;7.690;2023-10-09T08:59:16;10.27;;;3.50;;
18449;SDS011;9354;50.194;7.690;2023-10-09T09:01:44;14.00;;;4.20;;
18449;SDS011;9354;50.194;7.690;2023-10-09T09:04:34;45.57;;;15.07;;
18449;SDS011;9354;50.194;7.690;2023-10-09T09:07:06;34.97;;;13.20;;
18449;SDS011;9354;50.194;7.690;2023-10-09T09:09:54;24.47;;;9.53;;
18449;SDS011;9354;50.194;7.690;2023-10-09T09:12:22;14.50;;;4.73;;
18449;SDS011;9354;50.194;7.690;2023-10-09T09:14:54;10.87;;;4.10;;
18449;SDS011;9354;50.194;7.690;2023-10-09T09:17:23;14.20;;;4.53;;
18449;SDS011;9354;50.194;7.690;2023-10-09T09:20:01;11.87;;;4.00;;
18449;SDS011;9354;50.194;7.690;2023-10-09T09:22:52;15.53;;;4.13;;
18449;SDS011;9354;50.194;7.690;2023-10-09T09:25:22;15.87;;;3.77;;
18449;SDS011;9354;50.194;7.690;2023-10-09T09:27:51;11.13;;;3.40;;
18449;SDS011;9354;50.194;7.690;2023-10-09T09:30:23;9.07;;;3.73;;
18449;SDS011;9354;50.194;7.690;2023-10-09T09:32:57;13.27;;;3.70;;
18449;SDS011;9354;50.194;7.690;2023-10-09T09:35:57;6.70;;;3.93;;
18449;SDS011;9354;50.194;7.690;2023-10-09T09:38:25;14.20;;;4.00;;
18449;SDS011;9354;50.194;7.690;2023-10-09T09:40:55;6.40;;;3.33;;
18449;SDS011;9354;50.194;7.690;2023-10-09T09:43:28;10.40;;;3.30;;
18449;SDS011;9354;50.194;7.690;2023-10-09T09:46:01;11.40;;;4.07;;
18449;SDS011;9354;50.194;7.690;2023-10-09T09:48:34;8.67;;;3.13;;
18449;SDS011;9354;50.194;7.690;2023-10-09T09:51:12;8.40;;;3.40;;
18449;SDS011;9354;50.194;7.690;2023-10-09T09:53:43;11.93;;;3.60;;
18449;SDS011;9354;50.194;7.690;2023-10-09T09:56:14;9.90;;;3.37;;
18449;SDS011;9354;50.194;7.690;2023-10-09T09:58:50;7.67;;;3.40;;
18449;SDS011;9354;50.194;7.690;2023-10-09T10:01:19;12.07;;;3.83;;
18449;SDS011;9354;50.194;7.690;2023-10-09T10:03:52;9.93;;;3.30;;
18449;SDS011;9354;50.194;7.690;2023-10-09T10:06:25;9.80;;;3.40;;
18449;SDS011;9354;50.194;7.690;2023-10-09T10:08:58;8.47;;;3.53;;
18449;SDS011;9354;50.194;7.690;2023-10-09T10:11:44;9.60;;;3.47;;
18449;SDS011;9354;50.194;7.690;2023-10-09T10:14:12;10.77;;;3.40;;
18449;SDS011;9354;50.194;7.690;2023-10-09T10:17:00;9.00;;;3.40;;
18449;SDS011;9354;50.194;7.690;2023-10-09T10:22:50;8.23;;;3.17;;
18449;SDS011;9354;50.194;7.690;2023-10-09T10:25:32;7.50;;;3.57;;
18449;SDS011;9354;50.194;7.690;2023-10-09T10:28:16;8.70;;;3.07;;
18449;SDS011;9354;50.194;7.690;2023-10-09T10:30:54;10.20;;;3.13;;
18449;SDS011;9354;50.194;7.690;2023-10-09T10:33:26;10.00;;;3.37;;
18449;SDS011;9354;50.194;7.690;2023-10-09T10:36:14;10.93;;;3.10;;
18449;SDS011;9354;50.194;7.690;2023-10-09T10:38:51;7.03;;;3.50;;
18449;SDS011;9354;50.194;7.690;2023-10-09T10:41:30;7.33;;;3.47;;
18449;SDS011;9354;50.194;7.690;2023-10-09T10:44:04;7.97;;;3.07;;
18449;SDS011;9354;50.194;7.690;2023-10-09T10:46:45;6.90;;;3.10;;
18449;SDS011;9354;50.194;7.690;2023-10-09T10:49:17;8.80;;;3.43;;
18449;SDS011;9354;50.194;7.690;2023-10-09T10:51:47;9.13;;;3.63;;
18449;SDS011;9354;50.194;7.690;2023-10-09T10:54:28;7.03;;;3.10;;
18449;SDS011;9354;50.194;7.690;2023-10-09T10:57:18;8.03;;;3.47;;
18449;SDS011;9354;50.194;7.690;2023-10-09T10:59:55;10.67;;;3.40;;
18449;SDS011;9354;50.194;7.690;2023-10-09T11:02:46;8.17;;;3.10;;
18449;SDS011;9354;50.194;7.690;2023-10-09T11:05:13;6.90;;;3.40;;
18449;SDS011;9354;50.194;7.690;2023-10-09T11:07:49;8.07;;;3.30;;
18449;SDS011;9354;50.194;7.690;2023-10-09T11:10:23;7.57;;;3.40;;
18449;SDS011;9354;50.194;7.690;2023-10-09T11:12:57;11.10;;;3.37;;
18449;SDS011;9354;50.194;7.690;2023-10-09T11:15:54;9.17;;;3.10;;
18449;SDS011;9354;50.194;7.690;2023-10-09T11:18:40;9.37;;;3.50;;
18449;SDS011;9354;50.194;7.690;2023-10-09T11:21:13;11.03;;;3.30;;
18449;SDS011;9354;50.194;7.690;2023-10-09T11:23:59;9.10;;;3.10;;
18449;SDS011;9354;50.194;7.690;2023-10-09T11:26:43;7.57;;;3.10;;
18449;SDS011;9354;50.194;7.690;2023-10-09T11:29:19;9.57;;;3.07;;
18449;SDS011;9354;50.194;7.690;2023-10-09T11:31:58;9.33;;;3.40;;
18449;SDS011;9354;50.194;7.690;2023-10-09T11:34:26;14.37;;;3.63;;
18449;SDS011;9354;50.194;7.690;2023-10-09T11:36:57;7.93;;;3.17;;
18449;SDS011;9354;50.194;7.690;2023-10-09T11:39:26;10.77;;;3.80;;
18449;SDS011;9354;50.194;7.690;2023-10-09T11:42:07;7.37;;;3.40;;
18449;SDS011;9354;50.194;7.690;2023-10-09T11:44:34;7.13;;;3.43;;
18449;SDS011;9354;50.194;7.690;2023-10-09T11:47:04;7.60;;;3.73;;
18449;SDS011;9354;50.194;7.690;2023-10-09T11:49:58;7.83;;;3.70;;
18449;SDS011;9354;50.194;7.690;2023-10-09T11:52:58;10.13;;;3.70;;
18449;SDS011;9354;50.194;7.690;2023-10-09T11:55:43;9.90;;;3.93;;
18449;SDS011;9354;50.194;7.690;2023-10-09T11:58:16;12.73;;;4.33;;
18449;SDS011;9354;50.194;7.690;2023-10-09T12:00:49;8.70;;;4.07;;
18449;SDS011;9354;50.194;7.690;2023-10-09T12:03:23;12.50;;;3.80;;
18449;SDS011;9354;50.194;7.690;2023-10-09T12:05:54;22.80;;;4.13;;
18449;SDS011;9354;50.194;7.690;2023-10-09T12:08:23;10.03;;;3.53;;
18449;SDS011;9354;50.194;7.690;2023-10-09T12:10:53;10.63;;;3.63;;
18449;SDS011;9354;50.194;7.690;2023-10-09T12:13:23;6.60;;;3.00;;
18449;SDS011;9354;50.194;7.690;2023-10-09T12:15:51;8.37;;;3.17;;
18449;SDS011;9354;50.194;7.690;2023-10-09T12:18:19;10.43;;;3.40;;
18449;SDS011;9354;50.194;7.690;2023-10-09T12:20:49;7.20;;;3.43;;
18449;SDS011;9354;50.194;7.690;2023-10-09T12:23:18;8.57;;;3.40;;
18449;SDS011;9354;50.194;7.690;2023-10-09T12:25:47;11.73;;;3.50;;
18449;SDS011;9354;50.194;7.690;2023-10-09T12:28:16;9.93;;;3.27;;
18449;SDS011;9354;50.194;7.690;2023-10-09T12:30:47;7.10;;;2.90;;
18449;SDS011;9354;50.194;7.690;2023-10-09T12:33:17;17.13;;;4.00;;
18449;SDS011;9354;50.194;7.690;2023-10-09T12:35:45;10.13;;;3.30;;
18449;SDS011;9354;50.194;7.690;2023-10-09T12:38:13;8.77;;;2.97;;
18449;SDS011;9354;50.194;7.690;2023-10-09T12:40:44;10.13;;;3.10;;
18449;SDS011;9354;50.194;7.690;2023-10-09T12:43:17;8.23;;;3.27;;
18449;SDS011;9354;50.194;7.690;2023-10-09T12:45:48;9.43;;;3.43;;
18449;SDS011;9354;50.194;7.690;2023-10-09T12:48:16;8.77;;;3.17;;
18449;SDS011;9354;50.194;7.690;2023-10-09T12:50:43;8.47;;;3.23;;
18449;SDS011;9354;50.194;7.690;2023-10-09T12:53:11;7.70;;;3.13;;
18449;SDS011;9354;50.194;7.690;2023-10-09T12:55:43;6.20;;;2.97;;
18449;SDS011;9354;50.194;7.690;2023-10-09T12:58:11;11.80;;;3.27;;
18449;SDS011;9354;50.194;7.690;2023-10-09T13:00:41;8.00;;;3.07;;
18449;SDS011;9354;50.194;7.690;2023-10-09T13:03:16;9.47;;;3.60;;
18449;SDS011;9354;50.194;7.690;2023-10-09T13:05:45;10.37;;;3.27;;
18449;SDS011;9354;50.194;7.690;2023-10-09T13:08:20;7.57;;;2.90;;
18449;SDS011;9354;50.194;7.690;2023-10-09T13:10:49;9.07;;;3.60;;
18449;SDS011;9354;50.194;7.690;2023-10-09T13:13:25;12.37;;;3.53;;
18449;SDS011;9354;50.194;7.690;2023-10-09T13:16:08;9.83;;;3.27;;
18449;SDS011;9354;50.194;7.690;2023-10-09T13:18:43;8.00;;;2.70;;
18449;SDS011;9354;50.194;7.690;2023-10-09T13:21:15;6.33;;;3.00;;
18449;SDS011;9354;50.194;7.690;2023-10-09T13:23:43;10.70;;;3.53;;
18449;SDS011;9354;50.194;7.690;2023-10-09T13:26:13;14.37;;;3.73;;
18449;SDS011;9354;50.194;7.690;2023-10-09T13:28:51;14.03;;;3.20;;
18449;SDS011;9354;50.194;7.690;2023-10-09T13:31:19;7.57;;;2.77;;
18449;SDS011;9354;50.194;7.690;2023-10-09T13:33:52;6.93;;;3.13;;
18449;SDS011;9354;50.194;7.690;2023-10-09T13:36:21;16.00;;;3.93;;
18449;SDS011;9354;50.194;7.690;2023-10-09T13:38:57;8.23;;;3.20;;
18449;SDS011;9354;50.194;7.690;2023-10-09T13:41:28;9.80;;;3.33;;
18449;SDS011;9354;50.194;7.690;2023-10-09T13:43:55;13.23;;;3.30;;
18449;SDS011;9354;50.194;7.690;2023-10-09T13:46:23;6.87;;;2.97;;
18449;SDS011;9354;50.194;7.690;2023-10-09T13:48:50;6.23;;;3.00;;
18449;SDS011;9354;50.194;7.690;2023-10-09T13:51:19;7.80;;;3.27;;
18449;SDS011;9354;50.194;7.690;2023-10-09T13:53:49;9.80;;;3.80;;
18449;SDS011;9354;50.194;7.690;2023-10-09T13:56:17;7.13;;;2.83;;
18449;SDS011;9354;50.194;7.690;2023-10-09T13:58:46;11.07;;;3.23;;
18449;SDS011;9354;50.194;7.690;2023-10-09T14:01:15;7.07;;;3.03;;
18449;SDS011;9354;50.194;7.690;2023-10-09T14:03:57;8.67;;;3.63;;
18449;SDS011;9354;50.194;7.690;2023-10-09T14:06:27;14.40;;;4.47;;
18449;SDS011;9354;50.194;7.690;2023-10-09T14:08:57;11.97;;;3.23;;
18449;SDS011;9354;50.194;7.690;2023-10-09T14:11:27;17.93;;;3.33;;
18449;SDS011;9354;50.194;7.690;2023-10-09T14:13:55;10.03;;;3.27;;
18449;SDS011;9354;50.194;7.690;2023-10-09T14:16:22;10.97;;;3.60;;
18449;SDS011;9354;50.194;7.690;2023-10-09T14:18:54;14.53;;;4.10;;
18449;SDS011;9354;50.194;7.690;2023-10-09T14:21:26;9.43;;;3.33;;
18449;SDS011;9354;50.194;7.690;2023-10-09T14:23:55;13.33;;;3.17;;
18449;SDS011;9354;50.194;7.690;2023-10-09T14:26:26;5.93;;;3.03;;
18449;SDS011;9354;50.194;7.690;2023-10-09T14:28:55;9.10;;;3.60;;
18449;SDS011;9354;50.194;7.690;2023-10-09T14:31:24;7.40;;;3.47;;
18449;SDS011;9354;50.194;7.690;2023-10-09T14:33:55;7.77;;;3.50;;
18449;SDS011;9354;50.194;7.690;2023-10-09T14:36:23;11.83;;;3.70;;
18449;SDS011;9354;50.194;7.690;2023-10-09T14:39:00;9.10;;;3.10;;
18449;SDS011;9354;50.194;7.690;2023-10-09T14:41:30;14.47;;;3.17;;
18449;SDS011;9354;50.194;7.690;2023-10-09T14:43:58;11.47;;;3.83;;
18449;SDS011;9354;50.194;7.690;2023-10-09T14:46:26;10.10;;;3.67;;
18449;SDS011;9354;50.194;7.690;2023-10-09T14:48:55;12.07;;;3.37;;
18449;SDS011;9354;50.194;7.690;2023-10-09T14:51:22;12.67;;;3.60;;
18449;SDS011;9354;50.194;7.690;2023-10-09T14:53:54;7.70;;;3.90;;
18449;SDS011;9354;50.194;7.690;2023-10-09T14:56:25;10.57;;;3.60;;
18449;SDS011;9354;50.194;7.690;2023-10-09T14:58:55;9.47;;;3.20;;
18449;SDS011;9354;50.194;7.690;2023-10-09T15:01:24;8.70;;;3.13;;
18449;SDS011;9354;50.194;7.690;2023-10-09T15:03:57;8.13;;;3.27;;
18449;SDS011;9354;50.194;7.690;2023-10-09T15:06:26;7.83;;;3.20;;
18449;SDS011;9354;50.194;7.690;2023-10-09T15:08:55;12.63;;;3.33;;
18449;SDS011;9354;50.194;7.690;2023-10-09T15:11:25;12.33;;;4.00;;
18449;SDS011;9354;50.194;7.690;2023-10-09T15:13:54;9.87;;;3.83;;
18449;SDS011;9354;50.194;7.690;2023-10-09T15:16:23;11.47;;;3.57;;
18449;SDS011;9354;50.194;7.690;2023-10-09T15:18:54;8.40;;;3.60;;
18449;SDS011;9354;50.194;7.690;2023-10-09T15:21:23;8.70;;;3.33;;
18449;SDS011;9354;50.194;7.690;2023-10-09T15:23:52;6.87;;;3.50;;
18449;SDS011;9354;50.194;7.690;2023-10-09T15:26:20;6.50;;;3.20;;
18449;SDS011;9354;50.194;7.690;2023-10-09T15:28:51;8.40;;;2.93;;
18449;SDS011;9354;50.194;7.690;2023-10-09T15:31:18;7.57;;;3.60;;
18449;SDS011;9354;50.194;7.690;2023-10-09T15:33:47;8.63;;;3.30;;
18449;SDS011;9354;50.194;7.690;2023-10-09T15:36:17;10.57;;;3.80;;
18449;SDS011;9354;50.194;7.690;2023-10-09T15:38:46;6.70;;;3.20;;
18449;SDS011;9354;50.194;7.690;2023-10-09T15:41:15;10.00;;;3.77;;
18449;SDS011;9354;50.194;7.690;2023-10-09T15:43:43;12.47;;;4.50;;